Terminal Aerodrome Forecast
Issued by NWS

Home | Current Version | Previous Version | Text Only | Print | Product List | Glossary On
Versions: 1 2 3 4 5 6 7 8 9 10 11 12 13
671
FTUS43 KGRR 271423 AAA
TAFAZO
TAF AMD
KAZO 271423Z 2714/2812 20022G32KT P6SM VCSH BKN040
     FM271700 24018G27KT P6SM OVC025
     FM272000 24014G21KT P6SM BKN035
     FM280100 24011KT P6SM OVC025
     FM280700 22007KT P6SM OVC050=

USA.gov is the U.S. government's official web portal to all federal, state and local government web resources and services.